createdAt,value
2019-05-15T00:00:48.607Z,3.4
2019-05-15T00:01:55.808Z,3.4
2019-05-15T00:03:05.102Z,3.4
2019-05-15T00:04:14.757Z,3.4
2019-05-15T00:05:21.959Z,3.4
2019-05-15T00:06:29.258Z,3.4
2019-05-15T00:07:38.783Z,3.4
2019-05-15T00:08:48.506Z,3.4
2019-05-15T00:09:55.698Z,3.4
2019-05-15T00:11:05.276Z,3.4
2019-05-15T00:12:14.648Z,3.3
2019-05-15T00:13:21.853Z,3.3
2019-05-15T00:14:29.408Z,3.3
2019-05-15T00:15:36.615Z,3.2
2019-05-15T00:16:48.594Z,3.2
2019-05-15T00:17:57.769Z,3.2
2019-05-15T00:19:05.099Z,3.1
2019-05-15T00:20:14.312Z,3.1
2019-05-15T00:21:21.511Z,3.1
2019-05-15T00:22:29.730Z,3.1
2019-05-15T00:23:39.218Z,3.1
2019-05-15T00:24:48.655Z,3.1
2019-05-15T00:25:58.248Z,3.1
2019-05-15T00:27:05.602Z,3.1
2019-05-15T00:28:14.905Z,3.1
2019-05-15T00:29:22.103Z,3.1
2019-05-15T00:30:29.513Z,3.1
2019-05-15T00:31:39.324Z,3.1
2019-05-15T00:32:49.103Z,3.1
2019-05-15T00:33:56.300Z,3.2
2019-05-15T00:35:05.641Z,3.2
2019-05-15T00:36:15.560Z,3.2
2019-05-15T00:37:25.139Z,3.2
2019-05-15T00:38:32.341Z,3.2
2019-05-15T00:39:39.704Z,3.1
2019-05-15T00:40:48.951Z,3.1
2019-05-15T00:41:59.486Z,3.1
2019-05-15T00:43:09.209Z,3.1
2019-05-15T00:44:18.511Z,3.2
2019-05-15T00:45:27.755Z,3.2
2019-05-15T00:46:35.029Z,3.1
2019-05-15T00:47:44.682Z,3.1
2019-05-15T00:48:51.875Z,3.1
2019-05-15T00:49:59.076Z,3.1
2019-05-15T00:51:08.280Z,3.1
2019-05-15T00:52:17.883Z,3
2019-05-15T00:53:25.202Z,3
2019-05-15T00:54:34.617Z,3
2019-05-15T00:55:41.832Z,3
2019-05-15T00:56:49.041Z,3.1
2019-05-15T00:57:55.961Z,3
2019-05-15T00:59:05.658Z,3
2019-05-15T01:00:28.739Z,3
2019-05-15T01:01:38.704Z,3
2019-05-15T01:02:45.908Z,3
2019-05-15T01:03:55.425Z,2.9
2019-05-15T01:05:04.791Z,3
2019-05-15T01:06:11.445Z,2.9
2019-05-15T01:07:19.344Z,2.9
2019-05-15T01:08:28.282Z,2.9
2019-05-15T01:09:35.717Z,2.9
2019-05-15T01:10:45.148Z,2.9
2019-05-15T01:11:52.343Z,2.9
2019-05-15T01:12:59.540Z,2.9
2019-05-15T01:14:11.857Z,2.9
2019-05-15T01:15:19.243Z,2.8
2019-05-15T01:16:28.537Z,2.8
2019-05-15T01:17:35.467Z,2.8
2019-05-15T01:18:45.801Z,2.8
2019-05-15T01:19:55.063Z,2.7
2019-05-15T01:21:01.994Z,2.7
2019-05-15T01:22:09.348Z,2.7
2019-05-15T01:23:18.586Z,2.7
2019-05-15T01:24:28.119Z,2.7
2019-05-15T01:25:35.500Z,2.7
2019-05-15T01:26:45.136Z,2.7
2019-05-15T01:27:52.068Z,2.7
2019-05-15T01:28:59.265Z,2.7
2019-05-15T01:30:08.664Z,2.7
2019-05-15T01:31:16.185Z,2.7
2019-05-15T01:32:25.791Z,2.7
2019-05-15T01:33:35.273Z,2.6
2019-05-15T01:34:42.477Z,2.6
2019-05-15T01:35:49.508Z,2.6
2019-05-15T01:36:58.937Z,2.6
2019-05-15T01:38:20.952Z,2.6
2019-05-15T01:39:29.657Z,2.6
2019-05-15T01:40:38.925Z,2.6
2019-05-15T01:41:49.954Z,2.6
2019-05-15T01:42:58.817Z,2.6
2019-05-15T01:44:06.015Z,2.6
2019-05-15T01:45:15.688Z,2.5
2019-05-15T01:46:25.135Z,2.5
2019-05-15T01:47:34.769Z,2.5
2019-05-15T01:48:41.707Z,2.5
2019-05-15T01:49:49.604Z,2.5
2019-05-15T01:50:58.953Z,2.5
2019-05-15T01:52:08.491Z,2.5
2019-05-15T01:53:15.418Z,2.5
2019-05-15T01:54:24.874Z,2.4
2019-05-15T01:55:32.075Z,2.4
2019-05-15T01:56:39.381Z,2.4
2019-05-15T01:57:48.361Z,2.4
2019-05-15T01:58:57.656Z,2.4
2019-05-15T02:00:05.170Z,2.5
2019-05-15T02:01:12.091Z,2.4
2019-05-15T02:02:19.284Z,2.4
2019-05-15T02:03:28.760Z,2.3
2019-05-15T02:04:36.115Z,2.4
2019-05-15T02:05:48.500Z,2.4
2019-05-15T02:06:55.707Z,2.3
2019-05-15T02:08:05.337Z,2.3
2019-05-15T02:09:14.622Z,2.3
2019-05-15T02:10:21.550Z,2.3
2019-05-15T02:11:29.433Z,2.3
2019-05-15T02:12:39.255Z,2.2
2019-05-15T02:13:48.542Z,2.2
2019-05-15T02:14:55.451Z,2.2
2019-05-15T02:16:02.374Z,2.2
2019-05-15T02:17:09.299Z,2.2
2019-05-15T02:18:18.925Z,2.2
2019-05-15T02:19:28.576Z,2.2
2019-05-15T02:20:35.629Z,2.1
2019-05-15T02:21:45.601Z,2.2
2019-05-15T02:22:55.309Z,2.2
2019-05-15T02:24:02.526Z,2.1
2019-05-15T02:25:09.451Z,2.1
2019-05-15T02:26:19.290Z,2.1
2019-05-15T02:27:28.760Z,2
2019-05-15T02:28:38.797Z,2.1
2019-05-15T02:29:45.726Z,2.1
2019-05-15T02:30:58.476Z,2.1
2019-05-15T02:32:05.861Z,2.1
2019-05-15T02:33:19.510Z,2.1
2019-05-15T02:34:30.489Z,2
2019-05-15T02:35:40.031Z,2
2019-05-15T02:36:49.949Z,2.1
2019-05-15T02:38:00.208Z,2.1
2019-05-15T02:39:09.504Z,2
2019-05-15T02:40:19.632Z,2
2019-05-15T02:41:30.118Z,2
2019-05-15T02:42:40.736Z,2
2019-05-15T02:43:50.612Z,2
2019-05-15T02:44:59.209Z,2
2019-05-15T02:46:09.753Z,2
2019-05-15T02:47:20.370Z,1.9
2019-05-15T02:48:29.552Z,2
2019-05-15T02:49:40.046Z,2
2019-05-15T02:50:50.554Z,2
2019-05-15T02:52:00.843Z,2
2019-05-15T02:53:10.668Z,2
2019-05-15T02:54:20.210Z,2
2019-05-15T02:55:30.074Z,2
2019-05-15T02:56:39.871Z,2
2019-05-15T02:57:49.887Z,2
2019-05-15T02:59:00.338Z,2
2019-05-15T03:00:11.393Z,2
2019-05-15T03:01:53.735Z,1.9
2019-05-15T03:03:00.912Z,1.9
2019-05-15T03:04:09.843Z,1.9
2019-05-15T03:05:20.034Z,1.8
2019-05-15T03:06:30.122Z,1.8
2019-05-15T03:07:40.886Z,1.8
2019-05-15T03:08:50.091Z,1.8
2019-05-15T03:10:00.407Z,1.8
2019-05-15T03:11:10.390Z,1.8
2019-05-15T03:12:20.134Z,1.8
2019-05-15T03:13:30.243Z,1.8
2019-05-15T03:14:40.374Z,1.7
2019-05-15T03:15:49.526Z,1.7
2019-05-15T03:17:00.017Z,1.7
2019-05-15T03:18:10.396Z,1.7
2019-05-15T03:19:19.867Z,1.7
2019-05-15T03:20:30.221Z,1.6
2019-05-15T03:21:39.477Z,1.6
2019-05-15T03:22:49.752Z,1.6
2019-05-15T03:23:59.950Z,1.6
2019-05-15T03:25:11.265Z,1.6
2019-05-15T03:26:20.318Z,1.6
2019-05-15T03:27:34.220Z,1.6
2019-05-15T03:28:41.422Z,1.6
2019-05-15T03:29:49.979Z,1.6
2019-05-15T03:31:43.082Z,1.6
2019-05-15T03:33:44.698Z,1.6
2019-05-15T03:35:06.193Z,1.6
2019-05-15T03:36:24.827Z,1.6
2019-05-15T03:37:40.420Z,1.6
2019-05-15T03:38:50.514Z,1.6
2019-05-15T03:40:00.184Z,1.6
2019-05-15T03:41:10.804Z,1.6
2019-05-15T03:42:19.717Z,1.6
2019-05-15T03:43:29.640Z,1.7
2019-05-15T03:44:39.830Z,1.7
2019-05-15T03:45:49.853Z,1.7
2019-05-15T03:47:00.037Z,1.7
2019-05-15T03:48:09.914Z,1.6
2019-05-15T03:49:20.322Z,1.6
2019-05-15T03:50:29.595Z,1.6
2019-05-15T03:51:45.379Z,1.6
2019-05-15T03:52:59.250Z,1.6
2019-05-15T03:54:09.754Z,1.6
2019-05-15T03:55:19.201Z,1.6
2019-05-15T03:56:29.413Z,1.6
2019-05-15T03:57:40.618Z,1.6
2019-05-15T03:58:49.981Z,1.6
2019-05-15T04:00:00.212Z,1.6
2019-05-15T04:01:37.835Z,1.6
2019-05-15T04:02:50.513Z,1.6
2019-05-15T04:04:00.401Z,1.6
2019-05-15T04:05:12.437Z,1.6
2019-05-15T04:06:19.992Z,1.6
2019-05-15T04:07:29.768Z,1.6
2019-05-15T04:08:39.775Z,1.6
2019-05-15T04:09:49.863Z,1.6
2019-05-15T04:11:00.075Z,1.6
2019-05-15T04:12:09.995Z,1.6
2019-05-15T04:13:20.217Z,1.6
2019-05-15T04:14:30.203Z,1.6
2019-05-15T04:15:40.333Z,1.7
2019-05-15T04:16:50.228Z,1.6
2019-05-15T04:18:00.708Z,1.6
2019-05-15T04:19:10.337Z,1.6
2019-05-15T04:20:20.489Z,1.7
2019-05-15T04:21:30.791Z,1.6
2019-05-15T04:22:40.801Z,1.7
2019-05-15T04:23:50.653Z,1.7
2019-05-15T04:24:59.869Z,1.6
2019-05-15T04:26:09.921Z,1.6
2019-05-15T04:27:20.194Z,1.7
2019-05-15T04:28:29.857Z,1.7
2019-05-15T04:29:40.198Z,1.7
2019-05-15T04:30:50.077Z,1.7
2019-05-15T04:32:06.309Z,1.7
2019-05-15T04:33:20.457Z,1.7
2019-05-15T04:34:29.580Z,1.8
2019-05-15T04:35:40.635Z,1.7
2019-05-15T04:36:50.336Z,1.8
2019-05-15T04:38:00.333Z,1.8
2019-05-15T04:39:10.165Z,1.8
2019-05-15T04:40:19.922Z,1.8
2019-05-15T04:41:30.270Z,1.9
2019-05-15T04:42:40.496Z,1.9
2019-05-15T04:43:50.048Z,2
2019-05-15T04:45:00.081Z,2
2019-05-15T04:46:10.378Z,2.1
2019-05-15T04:47:19.851Z,2
2019-05-15T04:48:29.569Z,2.1
2019-05-15T04:49:39.761Z,2.1
2019-05-15T04:50:50.211Z,2.1
2019-05-15T04:52:04.005Z,2.2
2019-05-15T04:53:11.704Z,2.2
2019-05-15T04:54:20.583Z,2.3
2019-05-15T04:55:29.359Z,2.4
2019-05-15T04:56:39.653Z,2.4
2019-05-15T04:57:50.600Z,2.5
2019-05-15T04:59:00.629Z,2.5
2019-05-15T05:00:10.438Z,2.5
2019-05-15T05:01:20.752Z,2.6
2019-05-15T05:02:32.671Z,2.6
2019-05-15T05:03:40.393Z,2.6
2019-05-15T05:04:49.911Z,2.6
2019-05-15T05:05:59.658Z,2.6
2019-05-15T05:07:09.935Z,2.7
2019-05-15T05:08:20.971Z,2.7
2019-05-15T05:09:29.452Z,2.7
2019-05-15T05:10:39.345Z,2.8
2019-05-15T05:11:49.396Z,2.8
2019-05-15T05:12:59.568Z,2.8
2019-05-15T05:14:09.066Z,2.9
2019-05-15T05:15:18.817Z,2.9
2019-05-15T05:16:26.219Z,3
2019-05-15T05:17:35.735Z,3
2019-05-15T05:18:48.558Z,3
2019-05-15T05:19:55.726Z,3
2019-05-15T05:21:05.067Z,3
2019-05-15T05:22:14.143Z,3.1
2019-05-15T05:23:20.825Z,3.1
2019-05-15T05:24:28.630Z,3.1
2019-05-15T05:25:35.844Z,3.1
2019-05-15T05:26:45.542Z,3.2
2019-05-15T05:27:55.218Z,3.2
2019-05-15T05:29:04.749Z,3.3
2019-05-15T05:30:11.677Z,3.3
2019-05-15T05:31:19.645Z,3.3
2019-05-15T05:32:35.433Z,3.4
2019-05-15T05:33:45.655Z,3.5
2019-05-15T05:34:55.430Z,3.6
2019-05-15T05:36:02.617Z,3.7
2019-05-15T05:37:09.281Z,3.7
2019-05-15T05:38:19.711Z,3.8
2019-05-15T05:39:29.246Z,3.9
2019-05-15T05:40:38.947Z,4
2019-05-15T05:41:45.881Z,4.1
2019-05-15T05:42:55.439Z,4.2
2019-05-15T05:44:02.659Z,4.3
2019-05-15T05:45:10.104Z,4.4
2019-05-15T05:46:19.028Z,4.5
2019-05-15T05:47:26.225Z,4.7
2019-05-15T05:48:38.114Z,4.8
2019-05-15T05:49:45.480Z,5
2019-05-15T05:50:55.006Z,5.1
2019-05-15T05:52:04.655Z,5.2
2019-05-15T05:53:11.861Z,5.4
2019-05-15T05:54:18.896Z,5.6
2019-05-15T05:55:26.095Z,5.7
2019-05-15T05:56:35.200Z,5.8
2019-05-15T05:57:44.263Z,5.9
2019-05-15T05:58:51.466Z,6.1
2019-05-15T05:59:58.841Z,6.2
2019-05-15T06:01:05.768Z,6.3
2019-05-15T06:02:15.447Z,6.4
2019-05-15T06:03:25.226Z,6.4
2019-05-15T06:04:34.561Z,6.4
2019-05-15T06:05:41.761Z,6.5
2019-05-15T06:07:13.211Z,6.6
2019-05-15T06:08:21.327Z,6.7
2019-05-15T06:09:28.518Z,6.7
2019-05-15T06:10:38.316Z,6.8
2019-05-15T06:11:45.723Z,6.8
2019-05-15T06:12:55.033Z,7
2019-05-15T06:14:04.930Z,7.2
2019-05-15T06:15:11.592Z,7.3
2019-05-15T06:16:19.572Z,7.5
2019-05-15T06:17:28.602Z,7.7
2019-05-15T06:18:38.503Z,7.9
2019-05-15T06:19:48.603Z,8
2019-05-15T06:20:55.529Z,8.2
2019-05-15T06:22:05.281Z,8.3
2019-05-15T06:23:15.055Z,8.5
2019-05-15T06:24:32.413Z,8.7
2019-05-15T06:25:39.649Z,8.7
2019-05-15T06:26:48.735Z,8.7
2019-05-15T06:27:58.201Z,8.8
2019-05-15T06:29:05.529Z,8.8
2019-05-15T06:30:29.784Z,8.8
2019-05-15T06:31:39.367Z,8.6
2019-05-15T06:33:10.355Z,8.6
2019-05-15T06:34:20.405Z,8.7
2019-05-15T06:35:31.660Z,8.9
2019-05-15T06:36:39.833Z,9.1
2019-05-15T06:37:48.986Z,9.2
2019-05-15T06:38:56.201Z,9.2
2019-05-15T06:40:05.723Z,9.2
2019-05-15T06:41:15.196Z,9.5
2019-05-15T06:42:24.818Z,9.4
2019-05-15T06:43:34.572Z,9.5
2019-05-15T06:44:41.770Z,9.5
2019-05-15T06:45:49.504Z,9.5
2019-05-15T06:46:59.174Z,9.6
2019-05-15T06:48:09.271Z,9.3
2019-05-15T06:49:18.583Z,9.4
2019-05-15T06:50:25.515Z,9.3
2019-05-15T06:51:34.922Z,9.4
2019-05-15T06:52:44.622Z,9.5
2019-05-15T06:53:51.822Z,9.3
2019-05-15T06:54:59.818Z,9.2
2019-05-15T06:56:08.534Z,9.2
2019-05-15T06:57:18.197Z,9.3
2019-05-15T06:58:25.869Z,9.4
2019-05-15T06:59:35.646Z,9.7
2019-05-15T07:00:45.185Z,9.7
2019-05-15T07:01:59.136Z,9.9
2019-05-15T07:03:25.092Z,9.9
2019-05-15T07:04:38.169Z,10
2019-05-15T07:05:45.521Z,10.1
2019-05-15T07:06:52.721Z,10.1
2019-05-15T07:07:59.649Z,10
2019-05-15T07:09:09.809Z,9.7
2019-05-15T07:10:19.420Z,9.8
2019-05-15T07:11:28.693Z,9.9
2019-05-15T07:12:35.895Z,9.8
2019-05-15T07:13:45.803Z,10
2019-05-15T07:14:55.356Z,10.3
2019-05-15T07:16:05.003Z,10.1
2019-05-15T07:17:14.710Z,10.3
2019-05-15T07:18:23.954Z,10.5
2019-05-15T07:19:31.155Z,10.5
2019-05-15T07:20:39.685Z,10.4
2019-05-15T07:21:49.178Z,10.4
2019-05-15T07:22:59.163Z,10.5
2019-05-15T07:24:08.923Z,10.2
2019-05-15T07:25:19.321Z,10.3
2019-05-15T07:26:28.822Z,10.7
2019-05-15T07:27:38.697Z,11.1
2019-05-15T07:28:45.859Z,10.8
2019-05-15T07:29:55.079Z,10.4
2019-05-15T07:31:04.648Z,10.3
2019-05-15T07:32:11.864Z,10.4
2019-05-15T07:33:38.966Z,10.7
2019-05-15T07:34:50.508Z,10.4
2019-05-15T07:35:59.599Z,10.5
2019-05-15T07:37:10.058Z,10.8
2019-05-15T07:38:18.820Z,11.1
2019-05-15T07:39:25.743Z,11.1
2019-05-15T07:40:38.282Z,11
2019-05-15T07:41:48.863Z,11
2019-05-15T07:42:58.957Z,11.2
2019-05-15T07:44:08.354Z,11.5
2019-05-15T07:45:15.556Z,11.7
2019-05-15T07:46:28.630Z,11.9
2019-05-15T07:47:38.297Z,11.9
2019-05-15T07:48:45.787Z,11.9
2019-05-15T07:49:55.469Z,11.9
2019-05-15T07:51:05.107Z,12.1
2019-05-15T07:52:20.042Z,12.3
2019-05-15T07:53:29.405Z,12.4
2019-05-15T07:54:38.755Z,12.6
2019-05-15T07:55:45.693Z,12.5
2019-05-15T07:56:58.613Z,12.4
2019-05-15T07:58:08.432Z,11.8
2019-05-15T07:59:15.839Z,11.6
2019-05-15T08:00:25.377Z,11.6
2019-05-15T08:01:35.252Z,11.6
2019-05-15T08:02:47.814Z,11.9
2019-05-15T08:04:22.477Z,11.8
2019-05-15T08:05:59.959Z,12.1
2019-05-15T08:07:10.055Z,12.1
2019-05-15T08:08:19.078Z,12.2
2019-05-15T08:09:28.806Z,12.2
2019-05-15T08:10:35.743Z,12.4
2019-05-15T08:11:45.520Z,12.6
2019-05-15T08:12:55.267Z,12.9
2019-05-15T08:14:04.837Z,12.8
2019-05-15T08:15:12.046Z,12.9
2019-05-15T08:16:19.257Z,13.1
2019-05-15T08:17:29.433Z,13.4
2019-05-15T08:18:39.129Z,13.1
2019-05-15T08:19:49.091Z,13.1
2019-05-15T08:20:59.002Z,13.3
2019-05-15T08:22:05.946Z,13.2
2019-05-15T08:23:15.581Z,13.4
2019-05-15T08:24:25.398Z,13.7
2019-05-15T08:25:38.757Z,13.8
2019-05-15T08:26:48.423Z,13.5
2019-05-15T08:27:55.783Z,13.1
2019-05-15T08:29:05.677Z,13.1
2019-05-15T08:30:15.219Z,13.3
2019-05-15T08:31:25.104Z,13.4
2019-05-15T08:32:35.042Z,13.2
2019-05-15T08:33:42.239Z,13.4
2019-05-15T08:34:49.444Z,13.2
2019-05-15T08:35:58.591Z,12.8
2019-05-15T08:37:08.427Z,12.7
2019-05-15T08:38:17.966Z,12.8
2019-05-15T08:39:25.404Z,13
2019-05-15T08:40:34.941Z,13.1
2019-05-15T08:41:48.955Z,13.4
2019-05-15T08:43:02.366Z,13.4
2019-05-15T08:44:09.567Z,13.4
2019-05-15T08:45:19.294Z,13.3
2019-05-15T08:46:28.486Z,13.6
2019-05-15T08:47:38.386Z,13.6
2019-05-15T08:48:45.779Z,13.7
2019-05-15T08:49:57.884Z,13.8
2019-05-15T08:51:04.925Z,13.9
2019-05-15T08:52:12.132Z,14.2
2019-05-15T08:53:20.019Z,13.9
2019-05-15T08:54:29.611Z,13.6
2019-05-15T08:55:39.546Z,13.7
2019-05-15T08:56:48.945Z,13.5
2019-05-15T08:58:08.028Z,13.8
2019-05-15T08:59:20.773Z,14.2
2019-05-15T09:00:30.008Z,14.6
2019-05-15T09:01:38.855Z,14.8
2019-05-15T09:02:48.653Z,14.4
2019-05-15T09:03:58.650Z,14.5
2019-05-15T09:05:08.282Z,14.6
2019-05-15T09:06:18.261Z,14.6
2019-05-15T09:07:29.971Z,14.9
2019-05-15T09:08:39.749Z,14.7
2019-05-15T09:09:49.199Z,14.8
2019-05-15T09:10:58.642Z,14.4
2019-05-15T09:12:08.732Z,13.7
2019-05-15T09:13:18.597Z,14
2019-05-15T09:14:28.469Z,14.4
2019-05-15T09:15:35.799Z,14.4
2019-05-15T09:16:48.755Z,14.6
2019-05-15T09:18:15.790Z,14.2
2019-05-15T09:19:28.626Z,14.3
2019-05-15T09:20:38.845Z,14
2019-05-15T09:21:46.053Z,14
2019-05-15T09:22:58.095Z,14.2
2019-05-15T09:24:05.409Z,14.3
2019-05-15T09:25:15.525Z,14.6
2019-05-15T09:26:28.181Z,15
2019-05-15T09:27:35.561Z,14.7
2019-05-15T09:28:44.962Z,15.1
2019-05-15T09:29:52.175Z,15.6
2019-05-15T09:30:59.721Z,15.3
2019-05-15T09:32:12.553Z,15.6
2019-05-15T09:33:20.775Z,16.1
2019-05-15T09:34:54.114Z,16.6
2019-05-15T09:36:05.373Z,16.3
2019-05-15T09:37:15.176Z,16.2
2019-05-15T09:38:24.797Z,15.5
2019-05-15T09:39:32.011Z,15.2
2019-05-15T09:40:50.131Z,15.3
2019-05-15T09:41:58.478Z,15.4
2019-05-15T09:43:05.687Z,15.5
2019-05-15T09:44:22.364Z,15.1
2019-05-15T09:45:29.568Z,14.2
2019-05-15T09:46:38.882Z,14.4
2019-05-15T09:47:48.766Z,15
2019-05-15T09:48:55.982Z,15.7
2019-05-15T09:50:08.348Z,15.4
2019-05-15T09:51:18.123Z,15.1
2019-05-15T09:52:25.411Z,15
2019-05-15T09:53:32.347Z,15.2
2019-05-15T09:54:39.633Z,14.6
2019-05-15T09:55:49.905Z,14.3
2019-05-15T09:56:58.861Z,14.3
2019-05-15T09:58:08.711Z,14.5
2019-05-15T09:59:19.106Z,15.1
2019-05-15T10:00:29.063Z,15.4
2019-05-15T10:01:39.245Z,15.3
2019-05-15T10:02:49.185Z,15.3
2019-05-15T10:03:56.393Z,15.5
2019-05-15T10:05:11.065Z,15.5
2019-05-15T10:06:21.125Z,15.6
2019-05-15T10:07:29.110Z,15.4
2019-05-15T10:08:36.933Z,14.6
2019-05-15T10:09:52.291Z,14.5
2019-05-15T10:11:00.017Z,14.5
2019-05-15T10:12:09.679Z,14.7
2019-05-15T10:13:19.019Z,15
2019-05-15T10:14:26.251Z,15.4
2019-05-15T10:15:35.581Z,15.5
2019-05-15T10:16:45.740Z,15.1
2019-05-15T10:17:54.995Z,15.2
2019-05-15T10:19:05.868Z,15.1
2019-05-15T10:20:18.258Z,15.2
2019-05-15T10:21:32.731Z,14.8
2019-05-15T10:22:39.947Z,14.7
2019-05-15T10:23:49.713Z,14.3
2019-05-15T10:24:59.148Z,14.3
2019-05-15T10:27:35.773Z,14.9
2019-05-15T10:28:45.496Z,15.3
2019-05-15T10:29:55.735Z,15.1
2019-05-15T10:31:05.145Z,15.3
2019-05-15T10:32:12.355Z,15.3
2019-05-15T10:33:20.804Z,15.1
2019-05-15T10:34:29.434Z,15
2019-05-15T10:35:39.114Z,14.5
2019-05-15T10:36:46.496Z,14.6
2019-05-15T10:37:55.771Z,15
2019-05-15T10:39:08.765Z,15.1
2019-05-15T10:40:16.094Z,15.1
2019-05-15T10:41:28.679Z,14.6
2019-05-15T10:42:35.884Z,14.2
2019-05-15T10:43:56.932Z,14
2019-05-15T10:45:08.886Z,14
2019-05-15T10:46:16.099Z,14
2019-05-15T10:47:25.722Z,14.1
2019-05-15T10:48:38.255Z,14.1
2019-05-15T10:49:45.495Z,14.6
2019-05-15T10:51:07.024Z,14.7
2019-05-15T10:52:18.559Z,13.6
2019-05-15T10:53:25.223Z,13.8
2019-05-15T10:54:32.168Z,14.4
2019-05-15T10:55:40.129Z,15
2019-05-15T10:56:47.320Z,15.7
2019-05-15T10:57:54.583Z,15.1
2019-05-15T10:59:01.811Z,15.1
2019-05-15T11:00:09.024Z,15.1
2019-05-15T11:01:18.932Z,15.4
2019-05-15T11:02:28.824Z,15.7
2019-05-15T11:03:36.231Z,15.5
2019-05-15T11:04:48.574Z,14.9
2019-05-15T11:05:58.422Z,14.8
2019-05-15T11:07:05.637Z,14.8
2019-05-15T11:08:12.841Z,14.8
2019-05-15T11:09:19.776Z,15
2019-05-15T11:10:29.398Z,15.3
2019-05-15T11:11:36.333Z,15.4
2019-05-15T11:12:43.544Z,15.8
2019-05-15T11:13:50.755Z,16.1
2019-05-15T11:14:57.987Z,15.5
2019-05-15T11:16:05.201Z,15.4
2019-05-15T11:17:12.404Z,15.3
2019-05-15T11:18:19.340Z,14.9
2019-05-15T11:19:40.277Z,14.7
2019-05-15T11:20:49.377Z,14.4
2019-05-15T11:21:58.773Z,14.5
2019-05-15T11:23:08.524Z,15
2019-05-15T11:24:15.753Z,15.2
2019-05-15T11:25:22.693Z,15
2019-05-15T11:26:34.029Z,15.1
2019-05-15T11:27:41.241Z,15.2
2019-05-15T11:28:50.353Z,15
2019-05-15T11:29:59.062Z,15
2019-05-15T11:31:09.935Z,15
2019-05-15T11:32:17.462Z,15
2019-05-15T11:33:24.677Z,15.2
2019-05-15T11:34:31.883Z,15.7
2019-05-15T11:35:57.790Z,15.9
2019-05-15T11:37:12.574Z,16
2019-05-15T11:38:20.180Z,16.3
2019-05-15T11:39:29.391Z,16.7
2019-05-15T11:40:38.739Z,17.1
2019-05-15T11:41:49.000Z,17.6
2019-05-15T11:42:56.400Z,17.7
2019-05-15T11:44:03.609Z,18.2
2019-05-15T11:45:10.820Z,18.5
2019-05-15T11:46:19.140Z,18.8
2019-05-15T11:47:28.354Z,18.7
2019-05-15T11:48:35.566Z,17.9
2019-05-15T11:49:45.369Z,17.1
2019-05-15T11:50:52.580Z,16.5
2019-05-15T11:52:01.210Z,15.7
2019-05-15T11:53:09.282Z,15.6
2019-05-15T11:54:19.535Z,15.8
2019-05-15T11:55:29.114Z,16.1
2019-05-15T11:56:39.601Z,16.3
2019-05-15T11:59:18.865Z,17.2
2019-05-15T12:00:30.377Z,17.3
2019-05-15T12:01:38.889Z,17.9
2019-05-15T12:02:46.107Z,17.6
2019-05-15T12:03:53.311Z,17.5
2019-05-15T12:05:00.521Z,17.5
2019-05-15T12:06:22.530Z,16.6
2019-05-15T12:07:29.992Z,16.3
2019-05-15T12:08:39.105Z,16.2
2019-05-15T12:09:46.349Z,16.1
2019-05-15T12:10:53.568Z,16
2019-05-15T12:12:00.798Z,15.7
2019-05-15T12:13:10.341Z,15
2019-05-15T12:14:20.058Z,15.1
2019-05-15T12:15:28.520Z,15.2
2019-05-15T12:16:39.811Z,15.1
2019-05-15T12:17:49.073Z,15.2
2019-05-15T12:18:58.613Z,15.6
2019-05-15T12:20:29.977Z,16
2019-05-15T12:21:40.022Z,16.1
2019-05-15T12:22:49.117Z,15.9
2019-05-15T12:23:58.939Z,16.2
2019-05-15T12:25:10.465Z,16
2019-05-15T12:26:17.750Z,16.2
2019-05-15T12:27:24.690Z,16.5
2019-05-15T12:28:34.499Z,15.8
2019-05-15T12:29:41.766Z,15.4
2019-05-15T12:30:49.809Z,15.4
2019-05-15T12:32:11.662Z,15.4
2019-05-15T12:33:42.990Z,16
2019-05-15T12:34:50.273Z,16.8
2019-05-15T12:35:57.206Z,17.4
2019-05-15T12:37:04.451Z,17.5
2019-05-15T12:38:11.665Z,17.7
2019-05-15T12:39:27.020Z,17.7
2019-05-15T13:00:43.542Z,16.5
2019-05-15T13:01:50.754Z,15.8
2019-05-15T13:02:59.915Z,16.3
2019-05-15T13:04:08.540Z,16.4
2019-05-15T13:05:15.747Z,16.5
2019-05-15T13:06:28.947Z,16.1
2019-05-15T13:07:38.378Z,16
2019-05-15T13:08:45.600Z,15.9
2019-05-15T13:09:57.832Z,16.1
2019-05-15T13:11:14.926Z,16.2
2019-05-15T13:12:59.478Z,16.8
2019-05-15T13:14:15.543Z,17.6
2019-05-15T13:15:25.098Z,18.5
2019-05-15T13:16:34.870Z,18.3
2019-05-15T13:17:41.809Z,17.3
2019-05-15T13:18:48.752Z,16.9
2019-05-15T13:19:58.472Z,16.9
2019-05-15T13:21:05.866Z,16
2019-05-15T13:22:24.573Z,16
2019-05-15T13:23:31.980Z,16.3
2019-05-15T13:24:39.285Z,16.7
2019-05-15T13:25:48.730Z,16.3
2019-05-15T13:26:55.673Z,16.3
2019-05-15T13:28:05.091Z,16.6
2019-05-15T13:29:12.028Z,16.7
2019-05-15T13:30:19.249Z,16.6
2019-05-15T13:31:28.836Z,16.9
2019-05-15T13:32:36.049Z,17.3
2019-05-15T13:33:48.695Z,17.6
2019-05-15T13:34:59.255Z,17.4
2019-05-15T13:36:09.340Z,17
2019-05-15T13:37:30.717Z,17
2019-05-15T13:38:38.728Z,17.2
2019-05-15T13:39:48.383Z,17.3
2019-05-15T13:40:55.762Z,17.2
2019-05-15T13:42:05.428Z,17.5
2019-05-15T13:43:12.648Z,17.5
2019-05-15T13:44:19.860Z,17.7
2019-05-15T13:45:28.858Z,17.6
2019-05-15T13:46:38.564Z,17.2
2019-05-15T13:47:45.775Z,16.7
2019-05-15T13:48:52.985Z,16.4
2019-05-15T13:50:00.192Z,16.1
2019-05-15T13:51:07.124Z,15.9
2019-05-15T13:52:14.343Z,16.1
2019-05-15T13:53:21.709Z,16.1
2019-05-15T13:54:29.265Z,16.3
2019-05-15T13:55:42.860Z,16.4
2019-05-15T13:56:50.324Z,16
2019-05-15T13:57:58.539Z,16
2019-05-15T13:59:07.872Z,16
2019-05-15T14:00:14.894Z,16
2019-05-15T14:01:21.850Z,15.9
2019-05-15T14:02:29.047Z,15.8
2019-05-15T14:03:36.018Z,15.1
2019-05-15T14:04:45.762Z,14.8
2019-05-15T14:05:58.121Z,14.4
2019-05-15T14:07:05.494Z,14.5
2019-05-15T14:08:15.232Z,15
2019-05-15T14:09:24.718Z,15.6
2019-05-15T14:10:39.350Z,15.5
2019-05-15T14:11:49.985Z,15
2019-05-15T14:12:58.913Z,14.9
2019-05-15T14:14:06.125Z,15.3
2019-05-15T14:15:13.343Z,15.7
2019-05-15T14:16:20.554Z,15.4
2019-05-15T14:17:28.823Z,15
2019-05-15T14:18:36.035Z,15.3
2019-05-15T14:19:45.741Z,15.4
2019-05-15T14:20:55.364Z,15
2019-05-15T14:22:05.094Z,14.9
2019-05-15T14:23:14.712Z,14.8
2019-05-15T14:24:21.371Z,14.5
2019-05-15T14:25:28.693Z,14.2
2019-05-15T14:26:35.912Z,14.4
2019-05-15T14:27:42.858Z,14.3
2019-05-15T14:28:50.076Z,14.5
2019-05-15T14:29:58.681Z,14.6
2019-05-15T14:31:05.886Z,14.8
2019-05-15T14:32:20.128Z,14.2
2019-05-15T14:33:46.023Z,14.4
2019-05-15T14:34:55.448Z,14.7
2019-05-15T14:36:04.971Z,14.7
2019-05-15T14:37:14.463Z,14.3
2019-05-15T14:38:21.673Z,14
2019-05-15T14:39:28.891Z,13.9
2019-05-15T14:40:35.826Z,13.9
2019-05-15T14:41:42.765Z,14
2019-05-15T14:42:49.974Z,13.7
2019-05-15T14:44:16.605Z,13.6
2019-05-15T14:45:28.600Z,13.7
2019-05-15T14:46:37.875Z,13.7
2019-05-15T14:47:45.420Z,13.9
2019-05-15T14:48:55.376Z,13.9
2019-05-15T14:50:05.003Z,13.6
2019-05-15T14:51:12.462Z,13
2019-05-15T14:52:19.711Z,12.9
2019-05-15T14:53:29.831Z,13.2
2019-05-15T14:54:39.001Z,13.3
2019-05-15T14:55:49.709Z,13.5
2019-05-15T14:56:58.655Z,13.6
2019-05-15T14:58:08.115Z,13.4
2019-05-15T14:59:15.463Z,13.1
2019-05-15T15:00:22.674Z,13.2
2019-05-15T15:01:40.945Z,13.3
2019-05-15T15:02:50.016Z,13.4
2019-05-15T15:03:58.696Z,13.2
2019-05-15T15:05:08.557Z,13.1
2019-05-15T15:06:18.664Z,13
2019-05-15T15:07:28.094Z,12.8
2019-05-15T15:08:35.481Z,12.8
2019-05-15T15:09:42.421Z,12.9
2019-05-15T15:10:49.366Z,13
2019-05-15T15:11:56.581Z,12.6
2019-05-15T15:13:03.800Z,12.5
2019-05-15T15:14:10.741Z,12.5
2019-05-15T15:15:18.630Z,12.4
2019-05-15T15:16:25.842Z,12.6
2019-05-15T15:17:38.046Z,12.6
2019-05-15T15:18:48.721Z,12.6
2019-05-15T15:20:00.600Z,12.6
2019-05-15T15:21:09.249Z,12.2
2019-05-15T15:22:16.188Z,12.1
2019-05-15T15:23:38.719Z,11.7
2019-05-15T15:24:48.755Z,11.7
2019-05-15T15:25:58.448Z,11.6
2019-05-15T15:27:08.269Z,11.6
2019-05-15T15:28:18.673Z,11.7
2019-05-15T15:29:28.627Z,11.7
2019-05-15T15:30:38.788Z,11.8
2019-05-15T15:31:49.151Z,11.7
2019-05-15T15:32:57.930Z,11.6
2019-05-15T15:34:05.140Z,11.7
2019-05-15T15:35:12.084Z,11.6
2019-05-15T15:36:19.449Z,11.5
2019-05-15T15:37:29.272Z,11.3
2019-05-15T15:38:44.289Z,11.5
2019-05-15T15:39:51.498Z,11.6
2019-05-15T15:41:00.796Z,11.7
2019-05-15T15:42:09.170Z,11.8
2019-05-15T15:43:16.382Z,12.1
2019-05-15T15:44:23.762Z,12.1
2019-05-15T15:45:31.221Z,12.2
2019-05-15T15:46:40.261Z,12.1
2019-05-15T15:47:48.868Z,12
2019-05-15T15:48:59.202Z,12
2019-05-15T15:50:10.189Z,12.1
2019-05-15T15:51:18.465Z,12.1
2019-05-15T15:52:28.712Z,11.9
2019-05-15T15:53:36.165Z,11.8
2019-05-15T15:54:45.913Z,11.5
2019-05-15T15:55:53.388Z,11.4
2019-05-15T15:57:00.870Z,11.5
2019-05-15T15:58:10.282Z,11.4
2019-05-15T15:59:19.028Z,11.4
2019-05-15T16:00:29.407Z,11.5
2019-05-15T16:01:39.733Z,11.5
2019-05-15T16:02:49.191Z,11.5
2019-05-15T16:03:56.569Z,11.5
2019-05-15T16:05:04.343Z,11.5
2019-05-15T16:06:14.710Z,11.7
2019-05-15T16:07:25.011Z,11.7
2019-05-15T16:08:47.993Z,11.6
2019-05-15T16:10:02.494Z,11.5
2019-05-15T16:11:09.146Z,11.5
2019-05-15T16:12:18.992Z,11.5
2019-05-15T16:13:26.198Z,11.5
2019-05-15T16:14:37.981Z,11.5
2019-05-15T16:15:45.030Z,11.3
2019-05-15T16:16:52.236Z,11.1